Permanente, California
Current Conditions -  °F | °C
As of 12:56 PM on Wednesday 26 Nov 2014 (Local Time) from KNUQ Reporting Station
Clear Clear  
Wind Chill: 19°   Ceiling: Unl
Heat Index: 19°   Visibility: 9mi
Dew Point:   Wind: 3mph
Humidity: 42%   Direction: 350°N
Pressure: 30.23"   Gusts: NA
Location:  37.305°N, 122.094°W
Report Text: KNUQ 262056Z 35003KT 9SM CLR 19/06 A3023 RMK AO2 SLP240 T01940061 56030
Loading
Personal Weather Stations






























Interactive Weather Map New forecast layout! Learn more

10-Day Weather Forecast

Advertisements
Track Severe Weather on mobile